Salten — LMFM — position and weather

sailwx.info

Track history (hours):
 
Tides and Currents Weather Stations Pressure Air Temp Water Temp Dewpoint Dewpoint Depression Visibility Wind Speed Wind Dir Waves Ship Positions

Salten

Last reported at 2017-Nov-19 20:08 UTC. Time now 2017-Nov-22 01:56 UTC.
Position N 67°36' E 014°37'.

Length 41 m; draft 2 m.

Type: High speed craft. MMSI: 259387000.

Date/timePositionNaut miles runAvg speedWind from/ knotsBaromVisibWave heightAir tempDewpointWater temp
2017-Nov-19 20:08N 67°36' E 014°37'532.8
2017-Nov-19 19:58N 67°31' E 014°32'1531.8
2017-Nov-19 19:30N 67°17' E 014°22'0 0.9
2017-Nov-19 19:00N 67°17' E 014°23'1 1.4
2017-Nov-19 18:31N 67°18' E 014°23'2430.0
2017-Nov-19 17:43N 67°40' E 014°46'8 0.3
2017-Nov-18 16:53N 67°32' E 014°41'1129.7
2017-Nov-18 16:31N 67°22' E 014°29'611.9
2017-Nov-18 16:01N 67°17' E 014°22'0 0.0
2017-Nov-18 15:31N 67°17' E 014°22'0 0.0
2017-Nov-18 15:01N 67°17' E 014°22'0 0.0
2017-Nov-18 14:31N 67°17' E 014°22'0 0.0
2017-Nov-18 14:01N 67°17' E 014°22'0 0.0
2017-Nov-18 13:30N 67°17' E 014°22'0 0.0
2017-Nov-18 13:01N 67°17' E 014°22'0 0.0
2017-Nov-18 12:31N 67°17' E 014°22'0 0.0
2017-Nov-18 12:00N 67°17' E 014°22'0 0.0
2017-Nov-18 11:30N 67°17' E 014°22'0 0.0
2017-Nov-18 11:01N 67°17' E 014°22'1223.8
2017-Nov-18 10:30N 67°08' E 014°02'1019.3
2017-Nov-18 10:00N 67°01' E 013°44'3113.5
2017-Nov-18 07:42N 66°36' E 012°59'520.4
2017-Nov-18 07:27N 66°31' E 013°00'817.9
2017-Nov-18 06:59N 66°24' E 012°49'3 0.2
2017-Nov-17 19:25N 66°21' E 012°51'4 9.5
2017-Nov-17 19:00N 66°25' E 012°50'3412.7
2017-Nov-17 16:19N 66°55' E 013°30'411.7
2017-Nov-17 16:01N 66°58' E 013°33'1325.8
2017-Nov-17 15:31N 67°07' E 013°58'1428.1
2017-Nov-17 15:00N 67°17' E 014°22'0 0.9
2017-Nov-17 14:30N 67°17' E 014°23'0 0.2
2017-Nov-17 14:00N 67°17' E 014°23'0 0.8
2017-Nov-17 13:30N 67°17' E 014°22'0 0.0
2017-Nov-17 13:00N 67°17' E 014°22'0 0.0
2017-Nov-17 12:30N 67°17' E 014°22'0 0.0
2017-Nov-17 12:00N 67°17' E 014°22'0 0.0
2017-Nov-17 11:30N 67°17' E 014°22'0 0.0
2017-Nov-17 11:00N 67°17' E 014°22'1224.3
2017-Nov-17 10:30N 67°08' E 013°60'1020.8
2017-Nov-17 10:00N 67°01' E 013°41'3413.5
2017-Nov-17 07:28N 66°31' E 013°00'818.0
2017-Nov-17 07:00N 66°24' E 012°49'5 0.4
2017-Nov-16 19:31N 66°21' E 012°58'028.7
2017-Nov-16 19:30N 66°21' E 012°58'3612.4
2017-Nov-16 16:35N 66°54' E 013°34'228.0
2017-Nov-16 16:30N 66°55' E 013°30'917.7
2017-Nov-16 16:00N 67°02' E 013°45'918.0
2017-Nov-16 15:31N 67°07' E 014°03'1224.6
2017-Nov-16 15:01N 67°17' E 014°22'1 1.2
2017-Nov-16 14:30N 67°17' E 014°24'1 1.2
2017-Nov-16 14:01N 67°17' E 014°22'0 0.0
2017-Nov-16 13:30N 67°17' E 014°22'0 0.0
2017-Nov-16 13:00N 67°17' E 014°22'0 0.0
2017-Nov-16 12:30N 67°17' E 014°22'0 0.0
2017-Nov-16 12:00N 67°17' E 014°22'0 0.0
2017-Nov-16 11:30N 67°17' E 014°22'0 0.0
2017-Nov-16 11:00N 67°17' E 014°22'917.3
2017-Nov-16 10:31N 67°11' E 014°06'1530.8
2017-Nov-16 10:00N 67°00' E 013°39'1112.5
2017-Nov-16 09:06N 66°49' E 013°31'224.8
2017-Nov-16 09:00N 66°48' E 013°27'713.7
2017-Nov-16 08:30N 66°43' E 013°15'511.0
2017-Nov-16 08:00N 66°39' E 013°04'917.7
2017-Nov-16 07:30N 66°31' E 013°00'816.7
2017-Nov-16 07:00N 66°24' E 012°49'1224.3
2017-Nov-16 06:30N 66°12' E 013°00'1225.1
2017-Nov-16 06:00N 66°05' E 012°35'4 7.5
2017-Nov-16 05:30N 66°01' E 012°38'0 0.0
2017-Nov-16 05:00N 66°01' E 012°38'0 0.0
2017-Nov-16 04:30N 66°01' E 012°38'0 0.0
2017-Nov-16 04:00N 66°01' E 012°38'0 0.0
2017-Nov-16 03:30N 66°01' E 012°38'0 0.0
2017-Nov-16 03:00N 66°01' E 012°38'0 0.0
2017-Nov-16 02:30N 66°01' E 012°38'0 0.0
2017-Nov-16 02:00N 66°01' E 012°38'0 0.0
2017-Nov-16 01:30N 66°01' E 012°38'0 0.0
2017-Nov-16 01:00N 66°01' E 012°38'0 0.0
2017-Nov-16 00:30N 66°01' E 012°38'0 0.0
2017-Nov-16 00:00N 66°01' E 012°38'0 0.0
2017-Nov-15 23:30N 66°01' E 012°38'0 0.0
2017-Nov-15 23:00N 66°01' E 012°38'0 0.0
2017-Nov-15 22:30N 66°01' E 012°38'0 0.0
2017-Nov-15 22:00N 66°01' E 012°38'0 0.0
2017-Nov-15 21:30N 66°01' E 012°38'0 0.0
2017-Nov-15 21:00N 66°01' E 012°38'0 0.0
2017-Nov-15 20:30N 66°01' E 012°38'714.8
2017-Nov-15 20:00N 66°08' E 012°48'1019.3
2017-Nov-15 19:30N 66°17' E 012°55'917.4
2017-Nov-15 19:00N 66°25' E 012°50'916.7
2017-Nov-15 18:30N 66°33' E 012°58'612.5
2017-Nov-15 18:00N 66°39' E 013°05'510.8
2017-Nov-15 17:30N 66°43' E 013°14'714.3
2017-Nov-15 17:00N 66°48' E 013°27'714.6
2017-Nov-15 16:30N 66°54' E 013°38'510.3
2017-Nov-15 16:00N 66°58' E 013°33'1326.0
2017-Nov-15 15:31N 67°07' E 013°59'1427.5
2017-Nov-15 15:00N 67°17' E 014°22'0 0.1
2017-Nov-15 14:30N 67°17' E 014°22'1 1.3
2017-Nov-15 14:01N 67°17' E 014°24'1 1.2
2017-Nov-15 13:30N 67°17' E 014°22'0 0.0
2017-Nov-15 13:00N 67°17' E 014°22'0 0.0
2017-Nov-15 12:30N 67°17' E 014°22'0 0.0
2017-Nov-15 12:00N 67°17' E 014°22'0 0.0
2017-Nov-15 11:30N 67°17' E 014°22'0 0.0
2017-Nov-15 11:00N 67°17' E 014°22'0 0.0
2017-Nov-15 10:30N 67°17' E 014°22'0 0.0
2017-Nov-15 10:00N 67°17' E 014°22'0 0.0
2017-Nov-15 09:30N 67°17' E 014°22'0 0.0
2017-Nov-15 09:00N 67°17' E 014°22'1223.4
2017-Nov-15 08:31N 67°28' E 014°32'1426.4
2017-Nov-15 08:00N 67°41' E 014°43'918.2
2017-Nov-15 07:29N 67°50' E 014°47'1020.5
2017-Nov-15 07:00N 67°54' E 015°11'714.2
2017-Nov-15 06:30N 68°01' E 015°19'1428.0
2017-Nov-15 06:00N 68°08' E 014°47'815.9
2017-Nov-15 05:30N 68°14' E 014°34'0 0.0
2017-Nov-15 05:00N 68°14' E 014°34'0 0.0
2017-Nov-15 04:30N 68°14' E 014°34'0 0.0
2017-Nov-15 04:00N 68°14' E 014°34'0 0.0
2017-Nov-15 03:30N 68°14' E 014°34'0 0.0
2017-Nov-15 03:00N 68°14' E 014°34'0 0.0
2017-Nov-15 02:30N 68°14' E 014°34'0 0.0
2017-Nov-15 01:59N 68°14' E 014°34'0 0.0
2017-Nov-15 01:30N 68°14' E 014°34'0 0.0
2017-Nov-15 01:00N 68°14' E 014°34'0 0.0
2017-Nov-15 00:30N 68°14' E 014°34'0 0.0
2017-Nov-15 00:00N 68°14' E 014°34'0 0.0
2017-Nov-14 23:30N 68°14' E 014°34'0 0.0
2017-Nov-14 23:00N 68°14' E 014°34'0 0.0
2017-Nov-14 22:29N 68°14' E 014°34'0 0.0
2017-Nov-14 22:00N 68°14' E 014°34'0 0.0
2017-Nov-14 21:30N 68°14' E 014°34'0 0.0
2017-Nov-14 21:00N 68°14' E 014°34'0 0.0
2017-Nov-14 20:30N 68°14' E 014°34'0 0.0
2017-Nov-14 20:00N 68°14' E 014°34'1 2.8
2017-Nov-14 19:30N 68°13' E 014°36'1427.7
2017-Nov-14 19:00N 68°04' E 015°04'917.0
2017-Nov-14 18:30N 67°58' E 015°20'713.2
2017-Nov-14 18:00N 67°55' E 015°04'1122.0
2017-Nov-14 17:30N 67°47' E 014°43'1122.0
2017-Nov-14 17:00N 67°36' E 014°42'1529.7
2017-Nov-14 16:31N 67°22' E 014°29'611.7
2017-Nov-14 16:00N 67°17' E 014°22'0 0.0
2017-Nov-14 15:30N 67°17' E 014°22'0 0.0
2017-Nov-14 15:00N 67°17' E 014°22'0 0.0
2017-Nov-14 14:30N 67°17' E 014°22'0 0.0
2017-Nov-14 14:00N 67°17' E 014°22'0 0.0
2017-Nov-14 13:30N 67°17' E 014°22'0 0.0
2017-Nov-14 13:00N 67°17' E 014°22'0 0.0
2017-Nov-14 12:30N 67°17' E 014°22'0 0.0
2017-Nov-14 12:00N 67°17' E 014°22'1 1.0
2017-Nov-14 11:30N 67°17' E 014°23'1 1.0
2017-Nov-14 11:00N 67°17' E 014°22'1019.4
2017-Nov-14 10:30N 67°10' E 014°04'1324.6
2017-Nov-14 10:00N 67°01' E 013°43'816.7
2017-Nov-14 09:30N 66°54' E 013°31'510.5
2017-Nov-14 09:00N 66°49' E 013°31'918.4
2017-Nov-14 08:30N 66°43' E 013°12'611.4
2017-Nov-14 08:00N 66°39' E 013°03'815.7
2017-Nov-14 07:30N 66°31' E 012°58'816.7
2017-Nov-14 07:00N 66°24' E 012°50'1224.3
2017-Nov-14 06:30N 66°12' E 012°60'1223.1
2017-Nov-14 06:00N 66°05' E 012°37'4 7.9
2017-Nov-14 05:31N 66°01' E 012°38'0 0.0
2017-Nov-14 05:00N 66°01' E 012°38'0 0.0
2017-Nov-14 04:30N 66°01' E 012°38'0 0.0
2017-Nov-14 04:00N 66°01' E 012°38'0 0.0
2017-Nov-14 03:30N 66°01' E 012°38'0 0.0
2017-Nov-14 03:00N 66°01' E 012°38'0 0.0
2017-Nov-14 02:30N 66°01' E 012°38'0 0.0
2017-Nov-14 02:00N 66°01' E 012°38'0 0.0
2017-Nov-14 01:30N 66°01' E 012°38'0 0.0
2017-Nov-14 01:00N 66°01' E 012°38'0 0.0
2017-Nov-14 00:30N 66°01' E 012°38'0 0.0
2017-Nov-14 00:00N 66°01' E 012°38'0 0.0
2017-Nov-13 23:30N 66°01' E 012°38'0 0.0
2017-Nov-13 23:00N 66°01' E 012°38'0 0.0
2017-Nov-13 22:30N 66°01' E 012°38'0 0.0
2017-Nov-13 22:00N 66°01' E 012°38'0 0.0
2017-Nov-13 02:00N 66°01' E 012°38'0 0.0
2017-Nov-13 01:30N 66°01' E 012°38'0 0.0
2017-Nov-13 01:00N 66°01' E 012°38'0 0.0
2017-Nov-13 00:30N 66°01' E 012°38'0 0.0
2017-Nov-13 00:00N 66°01' E 012°38'0 0.0
2017-Nov-12 23:30N 66°01' E 012°38'0 0.0
2017-Nov-12 23:00N 66°01' E 012°38'0 0.0
2017-Nov-12 22:30N 66°01' E 012°38'0 0.0
2017-Nov-12 22:00N 66°01' E 012°38'0 0.0
2017-Nov-12 21:30N 66°01' E 012°38'0 0.0
2017-Nov-12 21:00N 66°01' E 012°38'0 0.0
2017-Nov-12 20:30N 66°01' E 012°38'0 0.5
2017-Nov-12 20:00N 66°02' E 012°38'1426.5
2017-Nov-12 19:29N 66°12' E 013°00'1123.7
2017-Nov-12 19:00N 66°05' E 012°38'4 7.6
2017-Nov-12 18:30N 66°01' E 012°38'0 0.0
2017-Nov-12 18:00N 66°01' E 012°38'0 0.0
2017-Nov-12 17:30N 66°01' E 012°38'4 7.9
2017-Nov-12 17:00N 66°05' E 012°38'1121.0
2017-Nov-12 16:30N 66°13' E 012°56'1121.5
2017-Nov-12 16:00N 66°24' E 012°50'816.4
2017-Nov-12 15:30N 66°31' E 013°00'917.6
2017-Nov-12 15:00N 66°39' E 013°04'510.1
2017-Nov-12 14:30N 66°43' E 013°12'816.1
2017-Nov-12 14:00N 66°48' E 013°28'612.1
2017-Nov-12 13:30N 66°54' E 013°31'714.9
2017-Nov-12 13:00N 67°00' E 013°41'1223.1
2017-Nov-12 12:31N 67°09' E 014°01'1223.3
2017-Nov-12 12:00N 67°17' E 014°22'0 0.0
2017-Nov-12 11:30N 67°17' E 014°22'0 0.0
2017-Nov-12 11:00N 67°17' E 014°22'0 0.0
2017-Nov-12 10:30N 67°17' E 014°22'0 0.0
2017-Nov-12 10:00N 67°17' E 014°22'0 0.0
2017-Nov-12 09:30N 67°17' E 014°22'0 0.0
2017-Nov-12 09:00N 67°17' E 014°22'0 0.0
2017-Nov-12 08:30N 67°17' E 014°22'0 0.0
2017-Nov-12 08:00N 67°17' E 014°22'0 0.0
2017-Nov-12 07:30N 67°17' E 014°22'0 0.0
2017-Nov-12 07:00N 67°17' E 014°22'0 0.0
2017-Nov-12 06:30N 67°17' E 014°22'0 0.0
2017-Nov-12 06:00N 67°17' E 014°22'0 0.0
2017-Nov-12 05:30N 67°17' E 014°22'0 0.0
2017-Nov-12 05:00N 67°17' E 014°22'0 0.0
2017-Nov-12 04:30N 67°17' E 014°22'0 0.0
2017-Nov-12 04:00N 67°17' E 014°22'0 0.0
2017-Nov-12 03:30N 67°17' E 014°22'0 0.0
2017-Nov-12 03:00N 67°17' E 014°22'0 0.0
2017-Nov-12 02:30N 67°17' E 014°22'0 0.0
2017-Nov-12 02:00N 67°17' E 014°22'0 0.0
2017-Nov-12 01:30N 67°17' E 014°22'0 0.0
2017-Nov-12 01:00N 67°17' E 014°22'0 0.0
2017-Nov-12 00:30N 67°17' E 014°22'0 0.0
2017-Nov-12 00:00N 67°17' E 014°22'0 0.0
2017-Nov-11 23:30N 67°17' E 014°22'0 0.0
2017-Nov-11 23:00N 67°17' E 014°22'0 0.0
2017-Nov-11 22:30N 67°17' E 014°22'0 0.0
2017-Nov-11 22:00N 67°17' E 014°22'0 0.0
2017-Nov-11 21:30N 67°17' E 014°22'0 0.0
2017-Nov-11 21:00N 67°17' E 014°22'0 0.0
2017-Nov-11 20:30N 67°17' E 014°22'0 0.0
2017-Nov-11 20:00N 67°17' E 014°22'0 0.0
2017-Nov-11 19:30N 67°17' E 014°22'0 0.0
2017-Nov-11 19:00N 67°17' E 014°22'0 0.0
2017-Nov-11 18:30N 67°17' E 014°22'0 0.0
2017-Nov-11 18:00N 67°17' E 014°22'0 0.0
2017-Nov-11 17:30N 67°17' E 014°22'0 0.0
2017-Nov-11 17:00N 67°17' E 014°22'0 0.0
2017-Nov-11 16:30N 67°17' E 014°22'0 0.0
2017-Nov-11 16:00N 67°17' E 014°22'0 0.0
2017-Nov-11 15:30N 67°17' E 014°22'0 0.0
2017-Nov-11 15:00N 67°17' E 014°22'0 0.0
2017-Nov-11 14:30N 67°17' E 014°22'0 0.0
2017-Nov-11 14:00N 67°17' E 014°22'0 0.0
2017-Nov-11 13:30N 67°17' E 014°22'0 0.0
2017-Nov-11 13:00N 67°17' E 014°22'0 0.0
2017-Nov-11 12:30N 67°17' E 014°22'0 0.0
2017-Nov-11 12:00N 67°17' E 014°22'0 0.0
2017-Nov-11 11:30N 67°17' E 014°22'0 0.0
2017-Nov-11 11:00N 67°17' E 014°22'0 0.0
2017-Nov-11 10:30N 67°17' E 014°22'0 0.0
2017-Nov-11 10:00N 67°17' E 014°22'0 0.8
2017-Nov-11 09:30N 67°17' E 014°23'0 0.7
2017-Nov-11 09:01N 67°17' E 014°22'1426.7
2017-Nov-11 08:30N 67°29' E 014°38'1428.2
2017-Nov-11 08:00N 67°43' E 014°44'714.0
2017-Nov-11 07:30N 67°50' E 014°47'1019.9
2017-Nov-11 07:00N 67°54' E 015°11'815.0
2017-Nov-11 06:30N 68°01' E 015°17'1529.9
2017-Nov-11 06:00N 68°08' E 014°43'612.5
2017-Nov-11 05:30N 68°14' E 014°34'0 0.0
2017-Nov-11 05:01N 68°14' E 014°34'0 0.0
2017-Nov-11 04:30N 68°14' E 014°34'0 0.0
2017-Nov-11 04:00N 68°14' E 014°34'0 0.0
2017-Nov-11 03:30N 68°14' E 014°34'0 0.0
2017-Nov-11 03:00N 68°14' E 014°34'0 0.0
2017-Nov-11 02:30N 68°14' E 014°34'0 0.0
2017-Nov-11 02:00N 68°14' E 014°34'0 0.0
2017-Nov-11 01:30N 68°14' E 014°34'0 0.0
2017-Nov-11 01:00N 68°14' E 014°34'0 0.0
2017-Nov-11 00:30N 68°14' E 014°34'0 0.0
2017-Nov-11 00:00N 68°14' E 014°34'0 0.0
2017-Nov-10 23:31N 68°14' E 014°34'0 0.0
2017-Nov-10 22:59N 68°14' E 014°34'0 0.0
2017-Nov-10 22:30N 68°14' E 014°34'0 0.0
2017-Nov-10 22:00N 68°14' E 014°34'0 0.0
2017-Nov-10 21:30N 68°14' E 014°34'0 0.0
2017-Nov-10 21:00N 68°14' E 014°34'4 8.3
2017-Nov-10 20:30N 68°10' E 014°39'611.4
2017-Nov-10 20:00N 68°07' E 014°52'1224.9
2017-Nov-10 19:30N 68°01' E 015°20'816.2
2017-Nov-10 19:00N 67°54' E 015°08'918.0
2017-Nov-10 18:30N 67°50' E 014°47'1019.3
2017-Nov-10 18:00N 67°40' E 014°43'1021.2
2017-Nov-10 17:30N 67°30' E 014°38'1529.0
2017-Nov-10 17:00N 67°17' E 014°22'2 3.9
2017-Nov-10 16:31N 67°19' E 014°24'1428.3
2017-Nov-10 16:00N 67°32' E 014°40'1225.1
2017-Nov-10 15:30N 67°44' E 014°46'815.9
2017-Nov-10 15:00N 67°36' E 014°42'1429.0
2017-Nov-10 14:31N 67°23' E 014°29'612.5
2017-Nov-10 14:01N 67°17' E 014°22'0 0.5
2017-Nov-10 13:31N 67°17' E 014°23'0 0.5
2017-Nov-10 13:01N 67°17' E 014°22'0 0.0
2017-Nov-10 12:31N 67°17' E 014°22'0 0.0
2017-Nov-10 12:00N 67°17' E 014°22'0 0.0
2017-Nov-10 11:31N 67°17' E 014°22'0 0.0
2017-Nov-10 11:01N 67°17' E 014°22'0 0.0
2017-Nov-10 10:31N 67°17' E 014°22'0 0.0
2017-Nov-10 10:00N 67°17' E 014°22'0 0.0
2017-Nov-10 09:31N 67°17' E 014°22'0 0.7
2017-Nov-10 09:01N 67°17' E 014°22'1630.4
2017-Nov-10 08:30N 67°31' E 014°40'1325.8
2017-Nov-10 08:00N 67°44' E 014°46'612.7
2017-Nov-10 07:30N 67°50' E 014°47'1019.8
2017-Nov-10 07:00N 67°54' E 015°12'917.5
2017-Nov-10 06:30N 68°03' E 015°14'1326.2
2017-Nov-10 06:00N 68°08' E 014°42'612.5
2017-Nov-10 05:30N 68°14' E 014°34'0 0.0
2017-Nov-10 05:00N 68°14' E 014°34'0 0.0
2017-Nov-10 04:30N 68°14' E 014°34'0 0.0
2017-Nov-10 04:00N 68°14' E 014°34'0 0.0
2017-Nov-10 03:30N 68°14' E 014°34'0 0.0
2017-Nov-10 03:00N 68°14' E 014°34'0 0.0
2017-Nov-10 02:30N 68°14' E 014°34'0 0.0
2017-Nov-10 02:00N 68°14' E 014°34'0 0.0
2017-Nov-10 01:30N 68°14' E 014°34'0 0.0
2017-Nov-10 01:00N 68°14' E 014°34'0 0.0
2017-Nov-10 00:30N 68°14' E 014°34'0 0.0
2017-Nov-10 00:00N 68°14' E 014°34'0 0.0
2017-Nov-09 23:30N 68°14' E 014°34'0 0.0
2017-Nov-09 22:59N 68°14' E 014°34'0 0.0
2017-Nov-09 22:30N 68°14' E 014°34'0 0.0
2017-Nov-09 22:00N 68°14' E 014°34'0 0.0
2017-Nov-09 21:30N 68°14' E 014°34'0 0.0
2017-Nov-09 21:00N 68°14' E 014°34'0 0.0
2017-Nov-09 20:30N 68°14' E 014°34'  
Track history (hours):
 
Tides and Currents Weather Stations Pressure Air Temp Water Temp Dewpoint Dewpoint Depression Visibility Wind Speed Wind Dir Waves Ship Positions

Salten

Last reported at 2017-Nov-19 20:08 UTC. Time now 2017-Nov-22 01:56 UTC.
Position N 67°36' E 014°37'.

Length 41 m; draft 2 m.

Type: High speed craft. MMSI: 259387000.

Date/timePositionNaut miles runAvg speedWind from/ knotsBaromVisibWave heightAir tempDewpointWater temp
2017-Nov-19 20:08N 67°36' E 014°37'532.8
2017-Nov-19 19:58N 67°31' E 014°32'1531.8
2017-Nov-19 19:30N 67°17' E 014°22'0 0.9
2017-Nov-19 19:00N 67°17' E 014°23'1 1.4
2017-Nov-19 18:31N 67°18' E 014°23'2430.0
2017-Nov-19 17:43N 67°40' E 014°46'8 0.3
2017-Nov-18 16:53N 67°32' E 014°41'1129.7
2017-Nov-18 16:31N 67°22' E 014°29'611.9
2017-Nov-18 16:01N 67°17' E 014°22'0 0.0
2017-Nov-18 15:31N 67°17' E 014°22'0 0.0
2017-Nov-18 15:01N 67°17' E 014°22'0 0.0
2017-Nov-18 14:31N 67°17' E 014°22'0 0.0
2017-Nov-18 14:01N 67°17' E 014°22'0 0.0
2017-Nov-18 13:30N 67°17' E 014°22'0 0.0
2017-Nov-18 13:01N 67°17' E 014°22'0 0.0
2017-Nov-18 12:31N 67°17' E 014°22'0 0.0
2017-Nov-18 12:00N 67°17' E 014°22'0 0.0
2017-Nov-18 11:30N 67°17' E 014°22'0 0.0
2017-Nov-18 11:01N 67°17' E 014°22'1223.8
2017-Nov-18 10:30N 67°08' E 014°02'1019.3
2017-Nov-18 10:00N 67°01' E 013°44'3113.5
2017-Nov-18 07:42N 66°36' E 012°59'520.4
2017-Nov-18 07:27N 66°31' E 013°00'817.9
2017-Nov-18 06:59N 66°24' E 012°49'3 0.2
2017-Nov-17 19:25N 66°21' E 012°51'4 9.5
2017-Nov-17 19:00N 66°25' E 012°50'3412.7
2017-Nov-17 16:19N 66°55' E 013°30'411.7
2017-Nov-17 16:01N 66°58' E 013°33'1325.8
2017-Nov-17 15:31N 67°07' E 013°58'1428.1
2017-Nov-17 15:00N 67°17' E 014°22'0 0.9
2017-Nov-17 14:30N 67°17' E 014°23'0 0.2
2017-Nov-17 14:00N 67°17' E 014°23'0 0.8
2017-Nov-17 13:30N 67°17' E 014°22'0 0.0
2017-Nov-17 13:00N 67°17' E 014°22'0 0.0
2017-Nov-17 12:30N 67°17' E 014°22'0 0.0
2017-Nov-17 12:00N 67°17' E 014°22'0 0.0
2017-Nov-17 11:30N 67°17' E 014°22'0 0.0
2017-Nov-17 11:00N 67°17' E 014°22'1224.3
2017-Nov-17 10:30N 67°08' E 013°60'1020.8
2017-Nov-17 10:00N 67°01' E 013°41'3413.5
2017-Nov-17 07:28N 66°31' E 013°00'818.0
2017-Nov-17 07:00N 66°24' E 012°49'5 0.4
2017-Nov-16 19:31N 66°21' E 012°58'028.7
2017-Nov-16 19:30N 66°21' E 012°58'3612.4
2017-Nov-16 16:35N 66°54' E 013°34'228.0
2017-Nov-16 16:30N 66°55' E 013°30'917.7
2017-Nov-16 16:00N 67°02' E 013°45'918.0
2017-Nov-16 15:31N 67°07' E 014°03'1224.6
2017-Nov-16 15:01N 67°17' E 014°22'1 1.2
2017-Nov-16 14:30N 67°17' E 014°24'1 1.2
2017-Nov-16 14:01N 67°17' E 014°22'0 0.0
2017-Nov-16 13:30N 67°17' E 014°22'0 0.0
2017-Nov-16 13:00N 67°17' E 014°22'0 0.0
2017-Nov-16 12:30N 67°17' E 014°22'0 0.0
2017-Nov-16 12:00N 67°17' E 014°22'0 0.0
2017-Nov-16 11:30N 67°17' E 014°22'0 0.0
2017-Nov-16 11:00N 67°17' E 014°22'917.3
2017-Nov-16 10:31N 67°11' E 014°06'1530.8
2017-Nov-16 10:00N 67°00' E 013°39'1112.5
2017-Nov-16 09:06N 66°49' E 013°31'224.8
2017-Nov-16 09:00N 66°48' E 013°27'713.7
2017-Nov-16 08:30N 66°43' E 013°15'511.0
2017-Nov-16 08:00N 66°39' E 013°04'917.7
2017-Nov-16 07:30N 66°31' E 013°00'816.7
2017-Nov-16 07:00N 66°24' E 012°49'1224.3
2017-Nov-16 06:30N 66°12' E 013°00'1225.1
2017-Nov-16 06:00N 66°05' E 012°35'4 7.5
2017-Nov-16 05:30N 66°01' E 012°38'0 0.0
2017-Nov-16 05:00N 66°01' E 012°38'0 0.0
2017-Nov-16 04:30N 66°01' E 012°38'0 0.0
2017-Nov-16 04:00N 66°01' E 012°38'0 0.0
2017-Nov-16 03:30N 66°01' E 012°38'0 0.0
2017-Nov-16 03:00N 66°01' E 012°38'0 0.0
2017-Nov-16 02:30N 66°01' E 012°38'0 0.0
2017-Nov-16 02:00N 66°01' E 012°38'0 0.0
2017-Nov-16 01:30N 66°01' E 012°38'0 0.0
2017-Nov-16 01:00N 66°01' E 012°38'0 0.0
2017-Nov-16 00:30N 66°01' E 012°38'0 0.0
2017-Nov-16 00:00N 66°01' E 012°38'0 0.0
2017-Nov-15 23:30N 66°01' E 012°38'0 0.0
2017-Nov-15 23:00N 66°01' E 012°38'0 0.0
2017-Nov-15 22:30N 66°01' E 012°38'0 0.0
2017-Nov-15 22:00N 66°01' E 012°38'0 0.0
2017-Nov-15 21:30N 66°01' E 012°38'0 0.0
2017-Nov-15 21:00N 66°01' E 012°38'0 0.0
2017-Nov-15 20:30N 66°01' E 012°38'714.8
2017-Nov-15 20:00N 66°08' E 012°48'1019.3
2017-Nov-15 19:30N 66°17' E 012°55'917.4
2017-Nov-15 19:00N 66°25' E 012°50'916.7
2017-Nov-15 18:30N 66°33' E 012°58'612.5
2017-Nov-15 18:00N 66°39' E 013°05'510.8
2017-Nov-15 17:30N 66°43' E 013°14'714.3
2017-Nov-15 17:00N 66°48' E 013°27'714.6
2017-Nov-15 16:30N 66°54' E 013°38'510.3
2017-Nov-15 16:00N 66°58' E 013°33'1326.0
2017-Nov-15 15:31N 67°07' E 013°59'1427.5
2017-Nov-15 15:00N 67°17' E 014°22'0 0.1
2017-Nov-15 14:30N 67°17' E 014°22'1 1.3
2017-Nov-15 14:01N 67°17' E 014°24'1 1.2
2017-Nov-15 13:30N 67°17' E 014°22'0 0.0
2017-Nov-15 13:00N 67°17' E 014°22'0 0.0
2017-Nov-15 12:30N 67°17' E 014°22'0 0.0
2017-Nov-15 12:00N 67°17' E 014°22'0 0.0
2017-Nov-15 11:30N 67°17' E 014°22'0 0.0
2017-Nov-15 11:00N 67°17' E 014°22'0 0.0
2017-Nov-15 10:30N 67°17' E 014°22'0 0.0
2017-Nov-15 10:00N 67°17' E 014°22'0 0.0
2017-Nov-15 09:30N 67°17' E 014°22'0 0.0
2017-Nov-15 09:00N 67°17' E 014°22'1223.4
2017-Nov-15 08:31N 67°28' E 014°32'1426.4
2017-Nov-15 08:00N 67°41' E 014°43'918.2
2017-Nov-15 07:29N 67°50' E 014°47'1020.5
2017-Nov-15 07:00N 67°54' E 015°11'714.2
2017-Nov-15 06:30N 68°01' E 015°19'1428.0
2017-Nov-15 06:00N 68°08' E 014°47'815.9
2017-Nov-15 05:30N 68°14' E 014°34'0 0.0
2017-Nov-15 05:00N 68°14' E 014°34'0 0.0
2017-Nov-15 04:30N 68°14' E 014°34'0 0.0
2017-Nov-15 04:00N 68°14' E 014°34'0 0.0
2017-Nov-15 03:30N 68°14' E 014°34'0 0.0
2017-Nov-15 03:00N 68°14' E 014°34'0 0.0
2017-Nov-15 02:30N 68°14' E 014°34'0 0.0
2017-Nov-15 01:59N 68°14' E 014°34'0 0.0
2017-Nov-15 01:30N 68°14' E 014°34'0 0.0
2017-Nov-15 01:00N 68°14' E 014°34'0 0.0
2017-Nov-15 00:30N 68°14' E 014°34'0 0.0
2017-Nov-15 00:00N 68°14' E 014°34'0 0.0
2017-Nov-14 23:30N 68°14' E 014°34'0 0.0
2017-Nov-14 23:00N 68°14' E 014°34'0 0.0
2017-Nov-14 22:29N 68°14' E 014°34'0 0.0
2017-Nov-14 22:00N 68°14' E 014°34'0 0.0
2017-Nov-14 21:30N 68°14' E 014°34'0 0.0
2017-Nov-14 21:00N 68°14' E 014°34'0 0.0
2017-Nov-14 20:30N 68°14' E 014°34'0 0.0
2017-Nov-14 20:00N 68°14' E 014°34'1 2.8
2017-Nov-14 19:30N 68°13' E 014°36'1427.7
2017-Nov-14 19:00N 68°04' E 015°04'917.0
2017-Nov-14 18:30N 67°58' E 015°20'713.2
2017-Nov-14 18:00N 67°55' E 015°04'1122.0
2017-Nov-14 17:30N 67°47' E 014°43'1122.0
2017-Nov-14 17:00N 67°36' E 014°42'1529.7
2017-Nov-14 16:31N 67°22' E 014°29'611.7
2017-Nov-14 16:00N 67°17' E 014°22'0 0.0
2017-Nov-14 15:30N 67°17' E 014°22'0 0.0
2017-Nov-14 15:00N 67°17' E 014°22'0 0.0
2017-Nov-14 14:30N 67°17' E 014°22'0 0.0
2017-Nov-14 14:00N 67°17' E 014°22'0 0.0
2017-Nov-14 13:30N 67°17' E 014°22'0 0.0
2017-Nov-14 13:00N 67°17' E 014°22'0 0.0
2017-Nov-14 12:30N 67°17' E 014°22'0 0.0
2017-Nov-14 12:00N 67°17' E 014°22'1 1.0
2017-Nov-14 11:30N 67°17' E 014°23'1 1.0
2017-Nov-14 11:00N 67°17' E 014°22'1019.4
2017-Nov-14 10:30N 67°10' E 014°04'1324.6
2017-Nov-14 10:00N 67°01' E 013°43'816.7
2017-Nov-14 09:30N 66°54' E 013°31'510.5
2017-Nov-14 09:00N 66°49' E 013°31'918.4
2017-Nov-14 08:30N 66°43' E 013°12'611.4
2017-Nov-14 08:00N 66°39' E 013°03'815.7
2017-Nov-14 07:30N 66°31' E 012°58'816.7
2017-Nov-14 07:00N 66°24' E 012°50'1224.3
2017-Nov-14 06:30N 66°12' E 012°60'1223.1
2017-Nov-14 06:00N 66°05' E 012°37'4 7.9
2017-Nov-14 05:31N 66°01' E 012°38'0 0.0
2017-Nov-14 05:00N 66°01' E 012°38'0 0.0
2017-Nov-14 04:30N 66°01' E 012°38'0 0.0
2017-Nov-14 04:00N 66°01' E 012°38'0 0.0
2017-Nov-14 03:30N 66°01' E 012°38'0 0.0
2017-Nov-14 03:00N 66°01' E 012°38'0 0.0
2017-Nov-14 02:30N 66°01' E 012°38'0 0.0
2017-Nov-14 02:00N 66°01' E 012°38'0 0.0
2017-Nov-14 01:30N 66°01' E 012°38'0 0.0
2017-Nov-14 01:00N 66°01' E 012°38'0 0.0
2017-Nov-14 00:30N 66°01' E 012°38'0 0.0
2017-Nov-14 00:00N 66°01' E 012°38'0 0.0
2017-Nov-13 23:30N 66°01' E 012°38'0 0.0
2017-Nov-13 23:00N 66°01' E 012°38'0 0.0
2017-Nov-13 22:30N 66°01' E 012°38'0 0.0
2017-Nov-13 22:00N 66°01' E 012°38'0 0.0
2017-Nov-13 02:00N 66°01' E 012°38'0 0.0
2017-Nov-13 01:30N 66°01' E 012°38'0 0.0
2017-Nov-13 01:00N 66°01' E 012°38'0 0.0
2017-Nov-13 00:30N 66°01' E 012°38'0 0.0
2017-Nov-13 00:00N 66°01' E 012°38'0 0.0
2017-Nov-12 23:30N 66°01' E 012°38'0 0.0
2017-Nov-12 23:00N 66°01' E 012°38'0 0.0
2017-Nov-12 22:30N 66°01' E 012°38'0 0.0
2017-Nov-12 22:00N 66°01' E 012°38'0 0.0
2017-Nov-12 21:30N 66°01' E 012°38'0 0.0
2017-Nov-12 21:00N 66°01' E 012°38'0 0.0
2017-Nov-12 20:30N 66°01' E 012°38'0 0.5
2017-Nov-12 20:00N 66°02' E 012°38'1426.5
2017-Nov-12 19:29N 66°12' E 013°00'1123.7
2017-Nov-12 19:00N 66°05' E 012°38'4 7.6
2017-Nov-12 18:30N 66°01' E 012°38'0 0.0
2017-Nov-12 18:00N 66°01' E 012°38'0 0.0
2017-Nov-12 17:30N 66°01' E 012°38'4 7.9
2017-Nov-12 17:00N 66°05' E 012°38'1121.0
2017-Nov-12 16:30N 66°13' E 012°56'1121.5
2017-Nov-12 16:00N 66°24' E 012°50'816.4
2017-Nov-12 15:30N 66°31' E 013°00'917.6
2017-Nov-12 15:00N 66°39' E 013°04'510.1
2017-Nov-12 14:30N 66°43' E 013°12'816.1
2017-Nov-12 14:00N 66°48' E 013°28'612.1
2017-Nov-12 13:30N 66°54' E 013°31'714.9
2017-Nov-12 13:00N 67°00' E 013°41'1223.1
2017-Nov-12 12:31N 67°09' E 014°01'1223.3
2017-Nov-12 12:00N 67°17' E 014°22'0 0.0
2017-Nov-12 11:30N 67°17' E 014°22'0 0.0
2017-Nov-12 11:00N 67°17' E 014°22'0 0.0
2017-Nov-12 10:30N 67°17' E 014°22'0 0.0
2017-Nov-12 10:00N 67°17' E 014°22'0 0.0
2017-Nov-12 09:30N 67°17' E 014°22'0 0.0
2017-Nov-12 09:00N 67°17' E 014°22'0 0.0
2017-Nov-12 08:30N 67°17' E 014°22'0 0.0
2017-Nov-12 08:00N 67°17' E 014°22'0 0.0
2017-Nov-12 07:30N 67°17' E 014°22'0 0.0
2017-Nov-12 07:00N 67°17' E 014°22'0 0.0
2017-Nov-12 06:30N 67°17' E 014°22'0 0.0
2017-Nov-12 06:00N 67°17' E 014°22'0 0.0
2017-Nov-12 05:30N 67°17' E 014°22'0 0.0
2017-Nov-12 05:00N 67°17' E 014°22'0 0.0
2017-Nov-12 04:30N 67°17' E 014°22'0 0.0
2017-Nov-12 04:00N 67°17' E 014°22'0 0.0
2017-Nov-12 03:30N 67°17' E 014°22'0 0.0
2017-Nov-12 03:00N 67°17' E 014°22'0 0.0
2017-Nov-12 02:30N 67°17' E 014°22'0 0.0
2017-Nov-12 02:00N 67°17' E 014°22'0 0.0
2017-Nov-12 01:30N 67°17' E 014°22'0 0.0
2017-Nov-12 01:00N 67°17' E 014°22'0 0.0
2017-Nov-12 00:30N 67°17' E 014°22'0 0.0
2017-Nov-12 00:00N 67°17' E 014°22'0 0.0
2017-Nov-11 23:30N 67°17' E 014°22'0 0.0
2017-Nov-11 23:00N 67°17' E 014°22'0 0.0
2017-Nov-11 22:30N 67°17' E 014°22'0 0.0
2017-Nov-11 22:00N 67°17' E 014°22'0 0.0
2017-Nov-11 21:30N 67°17' E 014°22'0 0.0
2017-Nov-11 21:00N 67°17' E 014°22'0 0.0
2017-Nov-11 20:30N 67°17' E 014°22'0 0.0
2017-Nov-11 20:00N 67°17' E 014°22'0 0.0
2017-Nov-11 19:30N 67°17' E 014°22'0 0.0
2017-Nov-11 19:00N 67°17' E 014°22'0 0.0
2017-Nov-11 18:30N 67°17' E 014°22'0 0.0
2017-Nov-11 18:00N 67°17' E 014°22'0 0.0
2017-Nov-11 17:30N 67°17' E 014°22'0 0.0
2017-Nov-11 17:00N 67°17' E 014°22'0 0.0
2017-Nov-11 16:30N 67°17' E 014°22'0 0.0
2017-Nov-11 16:00N 67°17' E 014°22'0 0.0
2017-Nov-11 15:30N 67°17' E 014°22'0 0.0
2017-Nov-11 15:00N 67°17' E 014°22'0 0.0
2017-Nov-11 14:30N 67°17' E 014°22'0 0.0
2017-Nov-11 14:00N 67°17' E 014°22'0 0.0
2017-Nov-11 13:30N 67°17' E 014°22'0 0.0
2017-Nov-11 13:00N 67°17' E 014°22'0 0.0
2017-Nov-11 12:30N 67°17' E 014°22'0 0.0
2017-Nov-11 12:00N 67°17' E 014°22'0 0.0
2017-Nov-11 11:30N 67°17' E 014°22'0 0.0
2017-Nov-11 11:00N 67°17' E 014°22'0 0.0
2017-Nov-11 10:30N 67°17' E 014°22'0 0.0
2017-Nov-11 10:00N 67°17' E 014°22'0 0.8
2017-Nov-11 09:30N 67°17' E 014°23'0 0.7
2017-Nov-11 09:01N 67°17' E 014°22'1426.7
2017-Nov-11 08:30N 67°29' E 014°38'1428.2
2017-Nov-11 08:00N 67°43' E 014°44'714.0
2017-Nov-11 07:30N 67°50' E 014°47'1019.9
2017-Nov-11 07:00N 67°54' E 015°11'815.0
2017-Nov-11 06:30N 68°01' E 015°17'1529.9
2017-Nov-11 06:00N 68°08' E 014°43'612.5
2017-Nov-11 05:30N 68°14' E 014°34'0 0.0
2017-Nov-11 05:01N 68°14' E 014°34'0 0.0
2017-Nov-11 04:30N 68°14' E 014°34'0 0.0
2017-Nov-11 04:00N 68°14' E 014°34'0 0.0
2017-Nov-11 03:30N 68°14' E 014°34'0 0.0
2017-Nov-11 03:00N 68°14' E 014°34'0 0.0
2017-Nov-11 02:30N 68°14' E 014°34'0 0.0
2017-Nov-11 02:00N 68°14' E 014°34'0 0.0
2017-Nov-11 01:30N 68°14' E 014°34'0 0.0
2017-Nov-11 01:00N 68°14' E 014°34'0 0.0
2017-Nov-11 00:30N 68°14' E 014°34'0 0.0
2017-Nov-11 00:00N 68°14' E 014°34'0 0.0
2017-Nov-10 23:31N 68°14' E 014°34'0 0.0
2017-Nov-10 22:59N 68°14' E 014°34'0 0.0
2017-Nov-10 22:30N 68°14' E 014°34'0 0.0
2017-Nov-10 22:00N 68°14' E 014°34'0 0.0
2017-Nov-10 21:30N 68°14' E 014°34'0 0.0
2017-Nov-10 21:00N 68°14' E 014°34'4 8.3
2017-Nov-10 20:30N 68°10' E 014°39'611.4
2017-Nov-10 20:00N 68°07' E 014°52'1224.9
2017-Nov-10 19:30N 68°01' E 015°20'816.2
2017-Nov-10 19:00N 67°54' E 015°08'918.0
2017-Nov-10 18:30N 67°50' E 014°47'1019.3
2017-Nov-10 18:00N 67°40' E 014°43'1021.2
2017-Nov-10 17:30N 67°30' E 014°38'1529.0
2017-Nov-10 17:00N 67°17' E 014°22'2 3.9
2017-Nov-10 16:31N 67°19' E 014°24'1428.3
2017-Nov-10 16:00N 67°32' E 014°40'1225.1
2017-Nov-10 15:30N 67°44' E 014°46'815.9
2017-Nov-10 15:00N 67°36' E 014°42'1429.0
2017-Nov-10 14:31N 67°23' E 014°29'612.5
2017-Nov-10 14:01N 67°17' E 014°22'0 0.5
2017-Nov-10 13:31N 67°17' E 014°23'0 0.5
2017-Nov-10 13:01N 67°17' E 014°22'0 0.0
2017-Nov-10 12:31N 67°17' E 014°22'0 0.0
2017-Nov-10 12:00N 67°17' E 014°22'0 0.0
2017-Nov-10 11:31N 67°17' E 014°22'0 0.0
2017-Nov-10 11:01N 67°17' E 014°22'0 0.0
2017-Nov-10 10:31N 67°17' E 014°22'0 0.0
2017-Nov-10 10:00N 67°17' E 014°22'0 0.0
2017-Nov-10 09:31N 67°17' E 014°22'0 0.7
2017-Nov-10 09:01N 67°17' E 014°22'1630.4
2017-Nov-10 08:30N 67°31' E 014°40'1325.8
2017-Nov-10 08:00N 67°44' E 014°46'612.7
2017-Nov-10 07:30N 67°50' E 014°47'1019.8
2017-Nov-10 07:00N 67°54' E 015°12'917.5
2017-Nov-10 06:30N 68°03' E 015°14'1326.2
2017-Nov-10 06:00N 68°08' E 014°42'612.5
2017-Nov-10 05:30N 68°14' E 014°34'0 0.0
2017-Nov-10 05:00N 68°14' E 014°34'0 0.0
2017-Nov-10 04:30N 68°14' E 014°34'0 0.0
2017-Nov-10 04:00N 68°14' E 014°34'0 0.0
2017-Nov-10 03:30N 68°14' E 014°34'0 0.0
2017-Nov-10 03:00N 68°14' E 014°34'0 0.0
2017-Nov-10 02:30N 68°14' E 014°34'0 0.0
2017-Nov-10 02:00N 68°14' E 014°34'0 0.0
2017-Nov-10 01:30N 68°14' E 014°34'0 0.0
2017-Nov-10 01:00N 68°14' E 014°34'0 0.0
2017-Nov-10 00:30N 68°14' E 014°34'0 0.0
2017-Nov-10 00:00N 68°14' E 014°34'0 0.0
2017-Nov-09 23:30N 68°14' E 014°34'0 0.0
2017-Nov-09 22:59N 68°14' E 014°34'0 0.0
2017-Nov-09 22:30N 68°14' E 014°34'0 0.0
2017-Nov-09 22:00N 68°14' E 014°34'0 0.0
2017-Nov-09 21:30N 68°14' E 014°34'0 0.0
2017-Nov-09 21:00N 68°14' E 014°34'0 0.0
2017-Nov-09 20:30N 68°14' E 014°34'  

Dump ship's entire track history